createdAt,value
2019-06-07T00:01:26.649Z,13.55
2019-06-07T00:03:56.469Z,13.37
2019-06-07T00:06:26.355Z,13.39
2019-06-07T00:08:56.265Z,13.36
2019-06-07T00:11:26.435Z,13.35
2019-06-07T00:13:56.290Z,13.37
2019-06-07T00:16:26.086Z,13.34
2019-06-07T00:18:57.370Z,13.35
2019-06-07T00:22:12.891Z,13.38
2019-06-07T00:23:58.691Z,13.34
2019-06-07T00:26:30.217Z,13.30
2019-06-07T00:29:00.113Z,13.24
2019-06-07T00:31:32.024Z,13.13
2019-06-07T00:34:01.838Z,13.07
2019-06-07T00:36:32.825Z,13.02
2019-06-07T00:39:03.649Z,12.98
2019-06-07T00:41:33.506Z,12.97
2019-06-07T00:44:03.319Z,12.89
2019-06-07T00:46:33.118Z,12.80
2019-06-07T00:49:03.065Z,12.77
2019-06-07T00:51:49.656Z,12.82
2019-06-07T00:54:04.667Z,12.85
2019-06-07T00:56:34.499Z,12.90
2019-06-07T00:59:11.452Z,12.94
2019-06-07T01:01:36.107Z,12.99
2019-06-07T01:04:05.953Z,13.03
2019-06-07T01:06:35.793Z,13.07
2019-06-07T01:09:08.149Z,13.10
2019-06-07T01:11:38.954Z,13.06
2019-06-07T01:14:11.370Z,12.81
2019-06-07T01:16:56.357Z,12.81
2019-06-07T01:19:13.831Z,12.81
2019-06-07T01:21:44.419Z,12.81
2019-06-07T01:24:15.290Z,12.74
2019-06-07T01:26:45.663Z,12.72
2019-06-07T01:29:19.547Z,12.75
2019-06-07T01:31:49.752Z,12.81
2019-06-07T01:34:25.191Z,12.75
2019-06-07T01:36:53.643Z,12.58
2019-06-07T01:39:29.739Z,12.45
2019-06-07T01:41:59.011Z,12.51
2019-06-07T01:44:31.216Z,12.58
2019-06-07T01:47:00.453Z,12.61
2019-06-07T01:49:30.299Z,12.64
2019-06-07T01:52:00.235Z,12.67
2019-06-07T01:57:01.741Z,12.78
2019-06-07T01:59:32.879Z,12.75
2019-06-07T02:02:02.528Z,12.67
2019-06-07T02:04:33.419Z,12.68
2019-06-07T02:07:03.674Z,12.71
2019-06-07T02:09:34.520Z,12.71
2019-06-07T02:12:25.018Z,12.69
2019-06-07T02:14:38.430Z,12.67
2019-06-07T02:17:08.304Z,12.68
2019-06-07T02:19:39.439Z,12.62
2019-06-07T02:22:09.270Z,12.55
2019-06-07T02:24:39.120Z,12.62
2019-06-07T02:27:08.973Z,12.71
2019-06-07T02:29:38.830Z,12.77
2019-06-07T02:32:08.644Z,12.80
2019-06-07T02:34:39.933Z,12.81
2019-06-07T02:37:09.976Z,12.83
2019-06-07T02:39:41.006Z,12.82
2019-06-07T02:42:12.112Z,12.78
2019-06-07T02:44:42.766Z,12.75
2019-06-07T02:47:14.001Z,12.72
2019-06-07T02:49:44.671Z,12.73
2019-06-07T02:52:14.685Z,12.76
2019-06-07T02:54:47.832Z,12.79
2019-06-07T02:57:20.670Z,12.83
2019-06-07T03:00:07.065Z,12.86
2019-06-07T03:02:25.539Z,12.91
2019-06-07T03:04:55.361Z,12.91
2019-06-07T03:07:27.798Z,12.11
2019-06-07T03:09:57.666Z,12.77
2019-06-07T03:12:30.871Z,12.76
2019-06-07T03:15:00.474Z,12.73
2019-06-07T03:17:40.878Z,12.68
2019-06-07T03:20:12.327Z,12.66
2019-06-07T03:22:43.186Z,12.64
2019-06-07T03:25:14.744Z,12.63
2019-06-07T03:27:49.807Z,12.57
2019-06-07T03:32:52.091Z,12.60
2019-06-07T03:35:22.211Z,12.65
2019-06-07T03:37:52.047Z,12.87
2019-06-07T03:40:22.214Z,13.14
2019-06-07T03:42:52.977Z,13.26
2019-06-07T03:45:23.682Z,13.44
2019-06-07T03:47:53.695Z,13.69
2019-06-07T03:50:23.690Z,13.84
2019-06-07T03:52:53.950Z,13.95
2019-06-07T03:55:25.456Z,14.08
2019-06-07T04:00:31.087Z,14.16
2019-06-07T04:03:00.566Z,14.24
2019-06-07T04:05:32.871Z,14.41
2019-06-07T04:08:02.270Z,14.61
2019-06-07T04:10:55.268Z,14.86
2019-06-07T04:13:05.850Z,14.97
2019-06-07T04:15:38.363Z,15.09
2019-06-07T04:18:07.264Z,15.12
2019-06-07T04:20:39.104Z,15.09
2019-06-07T04:23:27.418Z,15.05
2019-06-07T04:25:42.705Z,14.97
2019-06-07T04:28:12.409Z,14.92
2019-06-07T04:30:46.657Z,14.92
2019-06-07T04:33:16.672Z,14.93
2019-06-07T04:35:46.489Z,14.85
2019-06-07T04:38:16.436Z,14.98
2019-06-07T04:40:47.040Z,15.14
2019-06-07T04:43:17.122Z,15.42
2019-06-07T04:45:51.136Z,15.72
2019-06-07T04:48:22.685Z,15.74
2019-06-07T04:50:54.193Z,16.08
2019-06-07T04:53:24.023Z,16.18
2019-06-07T04:55:53.838Z,16.29
2019-06-07T04:58:23.631Z,16.62
2019-06-07T05:01:02.585Z,16.67
2019-06-07T05:03:26.066Z,16.68
2019-06-07T05:05:55.945Z,16.63
2019-06-07T05:08:28.531Z,16.62
2019-06-07T05:10:57.795Z,16.72
2019-06-07T05:13:31.589Z,16.57
2019-06-07T05:16:03.678Z,16.60
2019-06-07T05:18:35.635Z,16.67
2019-06-07T05:21:05.120Z,16.69
2019-06-07T05:24:05.597Z,16.70
2019-06-07T05:26:06.535Z,16.72
2019-06-07T05:28:39.720Z,16.70
2019-06-07T05:31:08.315Z,16.76
2019-06-07T05:33:40.589Z,17.02
2019-06-07T05:36:09.966Z,17.20
2019-06-07T05:38:42.581Z,17.26
2019-06-07T05:41:11.209Z,17.29
2019-06-07T05:43:49.489Z,17.42
2019-06-07T05:46:15.516Z,17.45
2019-06-07T05:48:45.382Z,17.51
2019-06-07T05:51:16.191Z,17.61
2019-06-07T05:53:46.296Z,17.78
2019-06-07T05:56:16.642Z,17.89
2019-06-07T05:58:47.042Z,17.90
2019-06-07T06:03:48.633Z,18.06
2019-06-07T06:06:19.519Z,18.14
2019-06-07T06:08:49.682Z,18.34
2019-06-07T06:11:19.708Z,18.45
2019-06-07T06:14:06.054Z,19.25
2019-06-07T06:16:21.388Z,20.40
2019-06-07T06:18:51.399Z,21.42
2019-06-07T06:21:22.374Z,23.69
2019-06-07T06:23:54.048Z,25.09
2019-06-07T06:26:23.997Z,27.35
2019-06-07T06:28:54.660Z,27.82
2019-06-07T06:31:25.228Z,26.71
2019-06-07T06:33:55.187Z,26.08
2019-06-07T06:36:25.045Z,25.41
2019-06-07T06:38:55.006Z,25.09
2019-06-07T06:41:24.893Z,24.79
2019-06-07T06:43:54.737Z,24.93
2019-06-07T06:46:38.050Z,25.34
2019-06-07T06:48:57.220Z,26.05
2019-06-07T06:51:29.447Z,26.42
2019-06-07T06:53:59.401Z,26.82
2019-06-07T06:56:30.301Z,26.53
2019-06-07T06:59:35.260Z,26.48
2019-06-07T07:01:34.674Z,26.17
2019-06-07T07:04:12.763Z,25.89
2019-06-07T07:06:38.070Z,25.75
2019-06-07T07:09:08.339Z,26.30
2019-06-07T07:11:59.288Z,26.01
2019-06-07T07:14:11.096Z,26.14
2019-06-07T07:16:44.962Z,26.27
2019-06-07T07:19:14.298Z,25.99
2019-06-07T07:21:45.842Z,26.03
2019-06-07T07:24:21.726Z,25.87
2019-06-07T07:26:50.458Z,25.35
2019-06-07T07:29:19.659Z,25.66
2019-06-07T07:31:53.807Z,25.82
2019-06-07T07:34:33.781Z,26.01
2019-06-07T07:36:59.615Z,26.10
2019-06-07T07:39:27.719Z,25.90
2019-06-07T07:42:17.712Z,25.92
2019-06-07T07:44:30.140Z,26.04
2019-06-07T07:47:00.613Z,26.25
2019-06-07T07:49:32.402Z,26.51
2019-06-07T07:52:03.790Z,26.66
2019-06-07T07:54:35.170Z,26.82
2019-06-07T07:57:05.100Z,26.97
2019-06-07T07:59:44.105Z,26.94
2019-06-07T08:02:09.565Z,26.17
2019-06-07T08:05:13.718Z,26.05
2019-06-07T08:07:11.065Z,26.10
2019-06-07T08:09:41.105Z,25.78
2019-06-07T08:12:12.477Z,25.89
2019-06-07T08:14:42.682Z,26.18
2019-06-07T08:17:12.594Z,26.39
2019-06-07T08:19:42.493Z,26.31
2019-06-07T08:22:12.660Z,26.25
2019-06-07T08:24:44.523Z,26.00
2019-06-07T08:27:25.797Z,25.40
2019-06-07T08:30:03.845Z,25.47
2019-06-07T08:32:20.843Z,25.71
2019-06-07T08:34:54.940Z,25.73
2019-06-07T08:38:07.749Z,25.99
2019-06-07T08:39:58.594Z,26.13
2019-06-07T08:42:36.812Z,26.37
2019-06-07T08:45:03.721Z,26.50
2019-06-07T08:47:31.763Z,26.61
2019-06-07T08:50:07.439Z,26.60
2019-06-07T08:52:33.295Z,25.90
2019-06-07T08:55:05.328Z,26.15
2019-06-07T08:57:35.487Z,26.38
2019-06-07T09:00:42.172Z,26.55
2019-06-07T09:02:42.971Z,26.34
2019-06-07T09:05:13.216Z,26.26
2019-06-07T09:07:43.953Z,26.47
2019-06-07T09:10:15.498Z,25.75
2019-06-07T09:12:46.097Z,26.18
2019-06-07T09:15:23.482Z,26.41
2019-06-07T09:20:36.510Z,26.46
2019-06-07T09:22:57.790Z,26.54
2019-06-07T09:25:28.166Z,26.17
2019-06-07T09:27:59.198Z,25.78
2019-06-07T09:30:39.660Z,25.94
2019-06-07T09:33:11.709Z,26.03
2019-06-07T09:35:41.983Z,26.03
2019-06-07T09:38:24.203Z,25.88
2019-06-07T09:40:43.528Z,26.00
2019-06-07T09:45:45.852Z,25.87
2019-06-07T09:48:34.356Z,25.76
2019-06-07T09:50:49.745Z,25.70
2019-06-07T09:53:23.053Z,25.78
2019-06-07T09:55:51.271Z,25.60
2019-06-07T10:00:53.173Z,25.74
2019-06-07T10:03:23.096Z,25.93
2019-06-07T10:05:53.263Z,25.99
2019-06-07T10:09:42.564Z,26.01
2019-06-07T10:10:56.217Z,26.18
2019-06-07T10:13:26.136Z,26.19
2019-06-07T10:15:58.896Z,26.23
2019-06-07T10:18:30.577Z,26.32
2019-06-07T10:21:01.425Z,26.33
2019-06-07T10:23:33.211Z,26.07
2019-06-07T10:26:04.045Z,26.08
2019-06-07T10:28:35.090Z,26.17
2019-06-07T10:31:07.802Z,26.19
2019-06-07T10:33:36.992Z,26.23
2019-06-07T10:36:10.663Z,26.39
2019-06-07T10:38:40.959Z,26.40
2019-06-07T10:41:11.162Z,26.11
2019-06-07T10:43:42.010Z,26.11
2019-06-07T10:46:13.562Z,25.85
2019-06-07T10:48:43.380Z,25.82
2019-06-07T10:51:14.730Z,25.90
2019-06-07T10:53:44.822Z,25.87
2019-06-07T10:56:15.723Z,25.75
2019-06-07T10:58:45.738Z,25.67
2019-06-07T11:01:15.697Z,25.77
2019-06-07T11:03:45.701Z,25.73
2019-06-07T11:06:15.649Z,25.78
2019-06-07T11:08:46.548Z,25.76
2019-06-07T11:11:16.393Z,25.51
2019-06-07T11:13:46.285Z,25.44
2019-06-07T11:16:15.967Z,25.47
2019-06-07T11:18:46.402Z,25.51
2019-06-07T11:21:18.627Z,25.58
2019-06-07T11:23:49.548Z,25.61
2019-06-07T11:26:19.383Z,25.41
2019-06-07T11:28:49.212Z,25.27
2019-06-07T11:31:20.074Z,25.08
2019-06-07T11:33:49.999Z,25.16
2019-06-07T11:36:20.237Z,25.20
2019-06-07T11:38:49.938Z,25.30
2019-06-07T11:41:19.971Z,25.27
2019-06-07T11:43:49.921Z,25.17
2019-06-07T11:46:21.274Z,25.30
2019-06-07T11:48:51.129Z,25.50
2019-06-07T11:51:21.039Z,25.40
2019-06-07T11:53:50.911Z,25.40
2019-06-07T11:56:21.389Z,25.53
2019-06-07T11:58:51.369Z,25.71
2019-06-07T12:01:21.228Z,25.63
2019-06-07T12:03:51.071Z,25.60
2019-06-07T12:06:21.068Z,25.59
2019-06-07T12:08:54.082Z,25.57
2019-06-07T12:11:23.907Z,25.56
2019-06-07T12:13:53.617Z,25.47
2019-06-07T12:16:23.537Z,25.48
2019-06-07T12:18:53.336Z,25.59
2019-06-07T12:21:25.823Z,25.63
2019-06-07T12:23:57.457Z,25.63
2019-06-07T12:26:27.310Z,25.68
2019-06-07T12:28:58.251Z,25.64
2019-06-07T12:31:27.976Z,25.47
2019-06-07T12:33:57.705Z,25.44
2019-06-07T12:36:27.622Z,25.44
2019-06-07T12:38:58.365Z,25.37
2019-06-07T12:41:29.260Z,25.41
2019-06-07T12:44:01.603Z,25.48
2019-06-07T12:46:31.332Z,25.46
2019-06-07T12:49:01.558Z,25.46
2019-06-07T12:51:31.499Z,25.42
2019-06-07T12:54:02.940Z,25.44
2019-06-07T12:56:32.982Z,25.38
2019-06-07T12:59:02.852Z,25.46
2019-06-07T13:01:32.911Z,25.48
2019-06-07T13:04:02.791Z,25.48
2019-06-07T13:06:32.799Z,25.09
2019-06-07T13:09:02.657Z,25.59
2019-06-07T13:11:32.647Z,25.63
2019-06-07T13:14:02.459Z,25.36
2019-06-07T13:16:35.468Z,25.11
2019-06-07T13:19:06.770Z,25.15
2019-06-07T13:21:36.992Z,25.24
2019-06-07T13:24:09.431Z,25.24
2019-06-07T13:26:39.296Z,25.35
2019-06-07T13:29:09.504Z,25.31
2019-06-07T13:31:39.511Z,25.29
2019-06-07T13:34:09.390Z,25.19
2019-06-07T13:36:39.909Z,25.22
2019-06-07T13:39:10.744Z,25.18
2019-06-07T13:41:43.052Z,25.13
2019-06-07T13:44:13.550Z,25.23
2019-06-07T13:46:43.391Z,25.29
2019-06-07T13:49:13.232Z,25.12
2019-06-07T13:51:43.125Z,25.09
2019-06-07T13:54:13.999Z,25.16
2019-06-07T13:57:01.467Z,25.21
2019-06-07T13:59:16.169Z,25.24
2019-06-07T14:01:45.967Z,25.24
2019-06-07T14:04:18.819Z,25.26
2019-06-07T14:06:48.753Z,25.30
2019-06-07T14:09:19.420Z,25.28
2019-06-07T14:11:51.032Z,25.28
2019-06-07T14:14:25.540Z,25.61
2019-06-07T14:16:56.084Z,25.56
2019-06-07T14:19:26.914Z,25.44
2019-06-07T14:21:57.920Z,25.46
2019-06-07T14:24:31.235Z,25.47
2019-06-07T14:27:08.197Z,25.52
2019-06-07T14:29:38.608Z,25.53
2019-06-07T14:32:08.984Z,25.58
2019-06-07T14:34:39.379Z,25.56
2019-06-07T14:37:11.828Z,25.57
2019-06-07T14:39:41.724Z,25.58
2019-06-07T14:42:13.720Z,25.55
2019-06-07T14:44:43.464Z,25.52
2019-06-07T14:47:16.852Z,25.53
2019-06-07T14:49:46.875Z,25.55
2019-06-07T14:52:16.788Z,25.53
2019-06-07T14:54:46.798Z,25.46
2019-06-07T14:57:16.721Z,25.44
2019-06-07T14:59:46.586Z,25.41
2019-06-07T15:02:17.259Z,25.36
2019-06-07T15:04:48.329Z,25.31
2019-06-07T15:07:20.675Z,25.28
2019-06-07T15:09:51.301Z,25.28
2019-06-07T15:12:25.458Z,25.26
2019-06-07T15:14:55.502Z,25.24
2019-06-07T15:17:28.414Z,25.28
2019-06-07T15:19:58.385Z,25.25
2019-06-07T15:22:30.189Z,25.28
2019-06-07T15:25:00.398Z,25.28
2019-06-07T15:27:31.270Z,25.25
2019-06-07T15:30:09.507Z,25.20
2019-06-07T15:32:35.203Z,25.18
2019-06-07T15:35:06.621Z,25.18
2019-06-07T15:37:36.716Z,25.15
2019-06-07T15:40:10.961Z,25.15
2019-06-07T15:42:52.069Z,25.13
2019-06-07T15:45:14.982Z,25.09
2019-06-07T15:47:44.806Z,25.06
2019-06-07T15:50:14.610Z,25.04
2019-06-07T15:52:44.533Z,25.02
2019-06-07T15:55:14.522Z,25.00
2019-06-07T15:57:45.289Z,24.94
2019-06-07T16:00:16.469Z,24.94
2019-06-07T16:02:46.362Z,24.87
2019-06-07T16:05:18.438Z,24.84
2019-06-07T16:07:48.759Z,24.81
2019-06-07T16:10:18.590Z,24.74
2019-06-07T16:12:59.757Z,24.67
2019-06-07T16:15:21.162Z,24.67
2019-06-07T16:17:51.010Z,24.66
2019-06-07T16:20:20.917Z,24.62
2019-06-07T16:22:51.026Z,24.58
2019-06-07T16:25:20.942Z,24.54
2019-06-07T16:27:50.744Z,24.50
2019-06-07T16:30:20.553Z,24.47
2019-06-07T16:32:50.391Z,24.47
2019-06-07T16:35:24.896Z,24.44
2019-06-07T16:37:55.516Z,24.43
2019-06-07T16:40:25.310Z,24.41
2019-06-07T16:42:55.238Z,24.37
2019-06-07T16:45:25.076Z,24.37
2019-06-07T16:47:55.093Z,24.37
2019-06-07T16:50:25.230Z,24.35
2019-06-07T16:52:55.009Z,24.31
2019-06-07T16:55:24.842Z,24.26
2019-06-07T16:57:54.625Z,24.21
2019-06-07T17:00:24.778Z,24.16
2019-06-07T17:02:54.658Z,24.12
2019-06-07T17:05:24.771Z,24.11
2019-06-07T17:07:55.058Z,24.07
2019-06-07T17:10:24.902Z,24.03
2019-06-07T17:12:54.708Z,23.96
2019-06-07T17:15:25.434Z,23.89
2019-06-07T17:17:55.269Z,23.80
2019-06-07T17:20:25.053Z,23.72
2019-06-07T17:22:55.822Z,23.65
2019-06-07T17:25:25.636Z,23.62
2019-06-07T17:27:55.791Z,23.58
2019-06-07T17:30:27.286Z,23.53
2019-06-07T17:33:00.936Z,23.49
2019-06-07T17:35:32.652Z,23.44
2019-06-07T17:38:05.111Z,23.39
2019-06-07T17:40:34.936Z,23.31
2019-06-07T17:43:04.865Z,23.24
2019-06-07T17:45:34.708Z,23.17
2019-06-07T17:48:04.622Z,23.14
2019-06-07T17:50:34.531Z,23.07
2019-06-07T17:53:04.361Z,22.98
2019-06-07T17:55:34.145Z,22.92
2019-06-07T17:58:03.974Z,22.84
2019-06-07T18:00:46.512Z,22.76
2019-06-07T18:03:16.841Z,22.69
2019-06-07T18:05:49.282Z,22.59
2019-06-07T18:08:19.230Z,22.51
2019-06-07T18:10:50.019Z,22.40
2019-06-07T18:13:19.979Z,22.32
2019-06-07T18:15:53.902Z,22.25
2019-06-07T18:18:22.047Z,22.19
2019-06-07T18:20:53.057Z,22.15
2019-06-07T18:23:23.286Z,22.11
2019-06-07T18:25:53.119Z,22.06
2019-06-07T18:28:23.007Z,22.01
2019-06-07T18:30:52.900Z,21.95
2019-06-07T18:33:22.743Z,21.89
2019-06-07T18:35:53.310Z,21.83
2019-06-07T18:38:23.347Z,21.74
2019-06-07T18:40:53.313Z,21.71
2019-06-07T18:43:26.435Z,21.66
2019-06-07T18:45:57.571Z,21.63
2019-06-07T18:48:27.573Z,21.60
2019-06-07T18:50:59.060Z,21.54
2019-06-07T18:53:29.084Z,21.47
2019-06-07T18:55:58.965Z,21.43
2019-06-07T18:58:28.840Z,21.36
2019-06-07T19:00:58.786Z,21.28
2019-06-07T19:03:28.610Z,21.20
2019-06-07T19:05:58.472Z,21.11
2019-06-07T19:08:28.307Z,20.99
2019-06-07T19:10:59.001Z,20.87
2019-06-07T19:13:29.002Z,20.77
2019-06-07T19:15:59.661Z,20.67
2019-06-07T19:18:29.579Z,20.57
2019-06-07T19:21:00.611Z,20.46
2019-06-07T19:23:30.652Z,20.34
2019-06-07T19:26:00.771Z,20.27
2019-06-07T19:28:30.634Z,20.11
2019-06-07T19:31:01.325Z,20.04
2019-06-07T19:33:31.235Z,19.82
2019-06-07T19:36:01.802Z,19.76
2019-06-07T19:38:31.720Z,19.72
2019-06-07T19:41:16.482Z,19.59
2019-06-07T19:43:33.143Z,19.66
2019-06-07T19:46:03.849Z,19.72
2019-06-07T19:48:33.729Z,19.74
2019-06-07T19:51:03.555Z,19.77
2019-06-07T19:53:33.415Z,19.75
2019-06-07T19:56:03.540Z,19.66
2019-06-07T19:58:33.368Z,19.66
2019-06-07T20:01:04.748Z,19.50
2019-06-07T20:03:34.780Z,19.29
2019-06-07T20:06:04.641Z,19.11
2019-06-07T20:08:37.789Z,18.99
2019-06-07T20:11:07.948Z,18.85
2019-06-07T20:13:37.779Z,18.77
2019-06-07T20:16:07.619Z,18.70
2019-06-07T20:18:37.508Z,18.56
2019-06-07T20:21:07.344Z,18.51
2019-06-07T20:23:37.311Z,18.48
2019-06-07T20:26:07.202Z,18.45
2019-06-07T20:28:37.025Z,18.29
2019-06-07T20:31:11.729Z,18.17
2019-06-07T20:33:42.241Z,18.11
2019-06-07T20:36:12.051Z,18.11
2019-06-07T20:38:42.738Z,18.10
2019-06-07T20:41:13.916Z,18.10
2019-06-07T20:43:43.860Z,18.08
2019-06-07T20:46:31.962Z,18.01
2019-06-07T20:49:20.192Z,17.87
2019-06-07T20:52:08.730Z,17.85
2019-06-07T20:54:58.347Z,17.79
2019-06-07T20:57:46.758Z,17.67
2019-06-07T21:00:35.397Z,17.67
2019-06-07T21:03:23.857Z,17.30
2019-06-07T21:06:12.361Z,17.22
2019-06-07T21:09:01.404Z,16.99
2019-06-07T21:11:49.934Z,16.85
2019-06-07T21:14:37.610Z,16.89
2019-06-07T21:17:26.066Z,16.96
2019-06-07T21:20:14.743Z,17.03
2019-06-07T21:23:03.330Z,17.14
2019-06-07T21:25:52.072Z,17.14
2019-06-07T21:28:40.753Z,17.02
2019-06-07T21:31:29.311Z,17.03
2019-06-07T21:34:17.817Z,16.99
2019-06-07T21:37:06.196Z,16.99
2019-06-07T21:39:54.354Z,17.00
2019-06-07T21:42:42.688Z,16.89
2019-06-07T21:45:31.283Z,16.76
2019-06-07T21:48:19.190Z,16.68
2019-06-07T21:51:08.288Z,16.66
2019-06-07T21:53:56.435Z,16.65
2019-06-07T21:56:44.789Z,16.56
2019-06-07T21:59:33.222Z,16.12
2019-06-07T22:02:21.775Z,16.12
2019-06-07T22:05:09.946Z,16.20
2019-06-07T22:07:57.784Z,16.22
2019-06-07T22:10:46.575Z,16.17
2019-06-07T22:13:34.771Z,16.02
2019-06-07T22:16:29.025Z,16.09
2019-06-07T22:19:12.975Z,15.98
2019-06-07T22:22:05.234Z,16.02
2019-06-07T22:24:53.808Z,15.94
2019-06-07T22:27:42.384Z,15.96
2019-06-07T22:30:30.661Z,15.87
2019-06-07T22:33:19.397Z,15.81
2019-06-07T22:36:08.892Z,15.61
2019-06-07T22:38:56.683Z,15.62
2019-06-07T22:41:45.380Z,15.66
2019-06-07T22:44:33.318Z,15.71
2019-06-07T22:47:21.792Z,15.71
2019-06-07T22:50:12.691Z,14.92
2019-06-07T22:53:00.919Z,15.59
2019-06-07T22:55:50.787Z,15.47
2019-06-07T22:58:38.501Z,15.50
2019-06-07T23:01:27.191Z,15.57
2019-06-07T23:04:16.706Z,15.60
2019-06-07T23:07:05.285Z,15.22
2019-06-07T23:09:54.018Z,15.59
2019-06-07T23:12:42.532Z,15.58
2019-06-07T23:15:31.072Z,15.52
2019-06-07T23:18:19.779Z,15.49
2019-06-07T23:21:08.269Z,15.52
2019-06-07T23:23:57.266Z,15.32
2019-06-07T23:26:45.415Z,15.17
2019-06-07T23:29:33.478Z,15.16
2019-06-07T23:32:21.844Z,15.17
2019-06-07T23:35:10.710Z,15.23
2019-06-07T23:37:59.694Z,15.25
2019-06-07T23:40:47.916Z,15.13
2019-06-07T23:43:36.441Z,15.19
2019-06-07T23:46:24.669Z,15.05
2019-06-07T23:49:14.021Z,14.81
2019-06-07T23:52:02.984Z,14.81
2019-06-07T23:54:51.440Z,14.77
2019-06-07T23:57:39.828Z,14.79
